Time;durP1;ratioP1;P1;durP2;ratioP2;P2;SDS_P1;SDS_P2;PMS_P1;PMS_P2;Temp;Humidity;BMP_temperature;BMP_pressure;BME280_temperature;BME280_humidity;BME280_pressure;Samples;Min_cycle;Max_cycle;Signal;HPM_P1;HPM_P2
2021/08/24 00:00:54;;;;;;;5.28;1.98;;;15.50;80.50;;;;;;4870655;29;20017;-61
2021/08/24 00:03:22;;;;;;;7.20;1.95;;;15.40;80.40;;;;;;4875455;29;20033;-61
2021/08/24 00:05:49;;;;;;;8.13;2.42;;;15.40;80.40;;;;;;4870851;29;20393;-61
2021/08/24 00:08:16;;;;;;;6.90;3.08;;;15.40;80.30;;;;;;4870164;29;20025;-61
2021/08/24 00:10:47;;;;;;;6.28;2.38;;;15.40;80.30;;;;;;4870386;29;20037;-60
2021/08/24 00:13:14;;;;;;;9.20;2.78;;;15.40;80.30;;;;;;4870650;29;20029;-62
2021/08/24 00:15:41;;;;;;;8.65;2.50;;;15.40;80.20;;;;;;4870032;29;20544;-62
2021/08/24 00:18:09;;;;;;;10.45;2.47;;;15.40;80.60;;;;;;4871476;29;20142;-61
2021/08/24 00:20:37;;;;;;;9.25;3.42;;;15.40;80.30;;;;;;4870102;29;20025;-61
2021/08/24 00:23:08;;;;;;;11.05;3.72;;;15.40;80.40;;;;;;4868062;29;20460;-62
2021/08/24 00:25:34;;;;;;;9.82;3.25;;;15.30;80.40;;;;;;4863050;29;20094;-63
2021/08/24 00:28:01;;;;;;;5.50;2.03;;;15.30;80.40;;;;;;4871288;29;20441;-61
2021/08/24 00:30:28;;;;;;;6.80;2.50;;;15.30;80.30;;;;;;4871035;29;20438;-60
2021/08/24 00:32:54;;;;;;;10.52;2.70;;;15.30;80.40;;;;;;4870462;29;20071;-60
2021/08/24 00:35:21;;;;;;;10.38;3.10;;;15.30;80.40;;;;;;4870376;29;20462;-63
2021/08/24 00:37:47;;;;;;;5.63;2.80;;;15.30;80.60;;;;;;4871749;29;20021;-61
2021/08/24 00:40:15;;;;;;;8.05;4.15;;;15.30;80.60;;;;;;4871615;29;20082;-60
2021/08/24 00:42:45;;;;;;;7.70;2.55;;;15.30;80.60;;;;;;4872191;29;20025;-63
2021/08/24 00:45:14;;;;;;;9.10;2.97;;;15.30;80.60;;;;;;4873939;29;20509;-66
2021/08/24 00:47:44;;;;;;;5.65;2.72;;;15.30;80.50;;;;;;4869231;29;20093;-62
2021/08/24 00:50:33;;;;;;;11.60;2.63;;;15.30;80.50;;;;;;4873438;29;20049;-63
2021/08/24 00:53:10;;;;;;;6.95;4.32;;;15.20;80.50;;;;;;4869143;29;20552;-60
2021/08/24 00:55:40;;;;;;;12.25;3.72;;;15.20;80.40;;;;;;4868439;29;20017;-60
2021/08/24 00:58:10;;;;;;;6.05;3.00;;;15.20;80.40;;;;;;4871417;29;20025;-62
2021/08/24 01:00:38;;;;;;;10.93;3.10;;;15.20;80.40;;;;;;4871203;29;20032;-65
2021/08/24 01:03:14;;;;;;;8.60;3.13;;;15.20;80.60;;;;;;4856163;29;20093;-61
2021/08/24 01:05:42;;;;;;;6.55;2.50;;;15.10;80.70;;;;;;4875018;29;20036;-60
2021/08/24 01:08:16;;;;;;;7.55;3.60;;;15.10;80.90;;;;;;4871298;29;20034;-60
2021/08/24 01:10:50;;;;;;;5.10;3.20;;;15.10;81.10;;;;;;4871846;29;20045;-61
2021/08/24 01:13:55;;;;;;;6.40;4.05;;;15.10;81.20;;;;;;4871090;29;20469;-61
2021/08/24 01:16:31;;;;;;;6.68;3.58;;;15.10;81.40;;;;;;4862329;29;20409;-60
2021/08/24 01:19:35;;;;;;;7.90;3.67;;;15.10;81.60;;;;;;4870014;29;20044;-60
2021/08/24 01:22:29;;;;;;;12.18;4.88;;;15.10;81.70;;;;;;4870793;29;20116;-61
2021/08/24 01:25:07;;;;;;;6.80;2.78;;;15.10;81.70;;;;;;4871291;29;20060;-61
2021/08/24 01:28:21;;;;;;;4.15;2.53;;;15.10;81.70;;;;;;4875706;29;20021;-63
2021/08/24 01:31:26;;;;;;;9.68;2.80;;;15.10;81.70;;;;;;4860217;29;20045;-61
2021/08/24 01:34:30;;;;;;;6.13;2.60;;;15.10;81.70;;;;;;4875134;29;20035;-60
2021/08/24 01:37:16;;;;;;;3.72;2.60;;;15.10;81.70;;;;;;4875412;29;20075;-61
2021/08/24 01:39:47;;;;;;;5.00;2.42;;;15.20;81.80;;;;;;4875448;29;20033;-60
2021/08/24 01:42:23;;;;;;;7.35;2.28;;;15.10;81.80;;;;;;4875481;29;20025;-60
2021/08/24 01:45:17;;;;;;;6.20;2.42;;;15.10;81.80;;;;;;4874801;29;20393;-60
2021/08/24 01:47:55;;;;;;;5.28;3.13;;;15.10;81.80;;;;;;4878825;29;20025;-60
2021/08/24 01:50:33;;;;;;;4.28;2.42;;;15.10;81.70;;;;;;4871988;29;20033;-61
2021/08/24 01:53:17;;;;;;;9.85;3.60;;;15.20;81.80;;;;;;4874108;29;20076;-60
2021/08/24 01:55:49;;;;;;;6.32;2.22;;;15.20;81.70;;;;;;4871769;29;20036;-61
2021/08/24 01:58:29;;;;;;;3.92;2.67;;;15.20;81.80;;;;;;4874990;29;20037;-61
2021/08/24 02:00:58;;;;;;;5.32;1.90;;;15.20;81.70;;;;;;4871783;29;20028;-60
2021/08/24 02:03:32;;;;;;;4.25;1.52;;;15.20;81.70;;;;;;4874340;29;20037;-61
2021/08/24 02:06:32;;;;;;;6.03;1.80;;;15.20;82.40;;;;;;4872761;29;20503;-64
2021/08/24 02:09:03;;;;;;;6.80;2.00;;;15.20;81.80;;;;;;4871816;29;20488;-61
2021/08/24 02:11:33;;;;;;;3.20;1.40;;;15.30;81.90;;;;;;4874539;29;20508;-60
2021/08/24 02:14:03;;;;;;;3.70;1.50;;;15.20;81.80;;;;;;4876644;29;20073;-60
2021/08/24 02:16:32;;;;;;;3.38;1.27;;;15.20;81.80;;;;;;4874819;29;20107;-61
2021/08/24 02:19:05;;;;;;;6.78;1.75;;;15.20;81.80;;;;;;4871830;29;20020;-60
2021/08/24 02:21:38;;;;;;;5.65;1.85;;;15.20;81.80;;;;;;4874303;29;20036;-60
2021/08/24 02:24:08;;;;;;;8.13;1.75;;;15.20;81.70;;;;;;4872236;29;20025;-60
2021/08/24 02:26:38;;;;;;;2.17;1.48;;;15.20;81.70;;;;;;4868293;29;20029;-65
2021/08/24 02:29:04;;;;;;;4.15;1.20;;;15.20;81.60;;;;;;4871276;29;20026;-60
2021/08/24 02:31:43;;;;;;;6.03;1.55;;;15.20;81.60;;;;;;4872854;29;22112;-65
2021/08/24 02:34:36;;;;;;;4.72;1.67;;;15.20;81.60;;;;;;4874034;29;20077;-62
2021/08/24 02:37:18;;;;;;;5.65;1.92;;;15.20;81.50;;;;;;4873895;29;20496;-60
2021/08/24 02:39:56;;;;;;;7.63;1.40;;;15.20;81.40;;;;;;4877470;29;20520;-61
2021/08/24 02:42:57;;;;;;;4.60;1.42;;;15.20;81.40;;;;;;4873562;29;20033;-61
2021/08/24 02:45:32;;;;;;;3.83;1.50;;;15.20;81.20;;;;;;4860485;29;20068;-61
2021/08/24 02:48:03;;;;;;;3.58;1.73;;;15.30;81.20;;;;;;4874436;29;20108;-63
2021/08/24 02:50:30;;;;;;;3.65;1.88;;;15.30;81.20;;;;;;4869056;29;20037;-60
2021/08/24 02:52:58;;;;;;;3.17;1.98;;;15.20;81.20;;;;;;4873475;29;20056;-62
2021/08/24 02:55:25;;;;;;;6.50;1.88;;;15.20;81.20;;;;;;4872726;29;20029;-60
2021/08/24 02:57:52;;;;;;;5.85;1.95;;;15.20;81.20;;;;;;4860116;29;20040;-64
2021/08/24 03:00:18;;;;;;;5.50;2.33;;;15.20;81.20;;;;;;4875634;29;20465;-61
2021/08/24 03:02:45;;;;;;;5.75;1.45;;;15.20;81.10;;;;;;4876323;29;20105;-60
2021/08/24 03:05:11;;;;;;;4.18;1.95;;;15.20;81.00;;;;;;4870165;29;20021;-60
2021/08/24 03:07:39;;;;;;;4.40;1.50;;;15.20;81.00;;;;;;4871733;29;20021;-61
2021/08/24 03:10:11;;;;;;;5.90;2.10;;;15.20;80.90;;;;;;4870910;29;20090;-60
2021/08/24 03:12:42;;;;;;;7.85;1.40;;;15.10;80.80;;;;;;4870649;29;20021;-61
2021/08/24 03:15:30;;;;;;;6.97;2.17;;;15.10;80.80;;;;;;4870709;29;20037;-61
2021/08/24 03:18:12;;;;;;;2.28;1.25;;;15.10;80.80;;;;;;4871684;29;20052;-61
2021/08/24 03:20:43;;;;;;;4.63;1.42;;;15.10;80.90;;;;;;4870974;29;20036;-61
2021/08/24 03:23:13;;;;;;;6.20;3.08;;;15.10;81.00;;;;;;4869704;29;20463;-63
2021/08/24 03:25:46;;;;;;;5.00;1.63;;;15.10;81.10;;;;;;4875378;29;20372;-60
2021/08/24 03:28:18;;;;;;;7.45;2.30;;;15.10;81.10;;;;;;4870124;29;20107;-64
2021/08/24 03:30:45;;;;;;;5.28;1.90;;;15.10;81.20;;;;;;4871940;29;20033;-68
2021/08/24 03:33:13;;;;;;;6.47;1.70;;;15.10;81.40;;;;;;4873046;29;20039;-66
2021/08/24 03:35:39;;;;;;;6.85;1.48;;;15.10;81.50;;;;;;4872264;29;20500;-62
2021/08/24 03:38:06;;;;;;;4.75;1.70;;;15.10;81.60;;;;;;4871194;29;20021;-60
2021/08/24 03:40:33;;;;;;;4.32;2.15;;;15.10;81.70;;;;;;4869139;29;20052;-60
2021/08/24 03:43:00;;;;;;;5.38;1.60;;;15.10;81.80;;;;;;4873081;29;20556;-63
2021/08/24 03:45:27;;;;;;;5.20;1.70;;;15.10;81.90;;;;;;4871566;29;20571;-64
2021/08/24 03:47:54;;;;;;;6.30;1.77;;;15.10;81.90;;;;;;4868902;29;20032;-60
2021/08/24 03:50:21;;;;;;;5.70;2.03;;;15.00;81.90;;;;;;4869608;29;20045;-63
2021/08/24 03:52:49;;;;;;;2.45;1.77;;;15.00;81.90;;;;;;4870259;29;20025;-62
2021/08/24 03:55:17;;;;;;;8.30;1.90;;;15.00;81.90;;;;;;4872153;29;20358;-68
2021/08/24 03:57:44;;;;;;;5.63;1.33;;;15.00;81.90;;;;;;4871546;29;20025;-61
2021/08/24 04:00:11;;;;;;;7.78;2.10;;;15.00;81.80;;;;;;4872170;29;20055;-57
2021/08/24 04:02:38;;;;;;;13.05;6.40;;;15.00;81.90;;;;;;4871110;29;20041;-59
2021/08/24 04:05:05;;;;;;;14.45;9.40;;;14.90;81.90;;;;;;4869816;29;20024;-62
2021/08/24 04:07:32;;;;;;;11.88;7.90;;;14.90;82.00;;;;;;4871344;29;20022;-54
2021/08/24 04:10:00;;;;;;;10.95;6.93;;;15.00;82.20;;;;;;4872037;29;20035;-57
2021/08/24 04:12:28;;;;;;;12.75;5.68;;;15.00;82.30;;;;;;4873052;29;20064;-70
2021/08/24 04:15:02;;;;;;;6.97;4.70;;;15.00;82.40;;;;;;4868927;29;20212;-74
2021/08/24 04:17:30;;;;;;;7.03;4.00;;;14.90;82.50;;;;;;4853047;29;20033;-70
2021/08/24 04:19:57;;;;;;;6.30;3.38;;;15.00;82.70;;;;;;4871467;29;20033;-63
2021/08/24 04:22:25;;;;;;;7.65;3.42;;;15.00;82.80;;;;;;4868561;29;20022;-55
2021/08/24 04:24:51;;;;;;;14.38;10.75;;;15.00;83.00;;;;;;4871566;29;20056;-65
2021/08/24 04:27:18;;;;;;;17.98;12.77;;;15.00;83.00;;;;;;4868185;29;20022;-60
2021/08/24 04:29:44;;;;;;;13.77;9.52;;;15.00;83.20;;;;;;4870457;29;20434;-64
2021/08/24 04:32:17;;;;;;;10.85;8.05;;;15.00;83.30;;;;;;4865159;29;20090;-70
2021/08/24 04:34:44;;;;;;;9.55;7.22;;;15.00;83.40;;;;;;4875626;29;20064;-56
2021/08/24 04:37:10;;;;;;;10.45;5.53;;;15.00;83.50;;;;;;4870133;29;20073;-65
2021/08/24 04:39:38;;;;;;;8.40;5.03;;;15.00;83.60;;;;;;4868485;29;20024;-67
2021/08/24 04:42:05;;;;;;;13.38;6.63;;;15.10;83.70;;;;;;4867815;29;20029;-57
2021/08/24 04:44:32;;;;;;;8.07;5.70;;;15.00;83.80;;;;;;4871006;29;20583;-63
2021/08/24 04:46:59;;;;;;;8.52;5.00;;;15.00;83.90;;;;;;4867819;29;20098;-69
2021/08/24 04:49:27;;;;;;;7.93;4.75;;;15.00;84.00;;;;;;4867020;29;20030;-57
2021/08/24 04:51:55;;;;;;;7.53;4.78;;;15.00;84.20;;;;;;4872507;29;20116;-54
2021/08/24 04:54:23;;;;;;;7.55;4.40;;;15.10;84.20;;;;;;4869760;29;20053;-64
2021/08/24 04:56:49;;;;;;;7.28;3.33;;;15.00;84.30;;;;;;4862412;29;20049;-66
2021/08/24 04:59:16;;;;;;;9.00;3.22;;;15.10;84.40;;;;;;4861223;29;20053;-73
2021/08/24 05:01:46;;;;;;;6.25;2.72;;;15.00;84.40;;;;;;4864008;29;20053;-71
2021/08/24 05:04:18;;;;;;;8.68;3.20;;;15.00;84.50;;;;;;4863511;29;20041;-60
2021/08/24 05:06:48;;;;;;;10.05;2.58;;;15.00;84.60;;;;;;4848466;29;20509;-60
2021/08/24 05:09:15;;;;;;;7.05;2.63;;;14.90;84.60;;;;;;4861186;29;20097;-66
2021/08/24 05:11:46;;;;;;;6.55;2.38;;;15.00;84.70;;;;;;4864221;29;20046;-67
2021/08/24 05:14:13;;;;;;;3.83;2.05;;;15.00;84.70;;;;;;4849008;29;20064;-67
2021/08/24 05:16:40;;;;;;;5.85;2.47;;;15.00;84.70;;;;;;4864849;29;20082;-70
2021/08/24 05:19:08;;;;;;;3.63;2.10;;;14.90;84.70;;;;;;4865103;29;20495;-71
2021/08/24 05:21:46;;;;;;;5.53;2.20;;;14.90;84.70;;;;;;4866157;29;20037;-68
2021/08/24 05:24:17;;;;;;;5.40;1.80;;;14.90;84.80;;;;;;4866077;29;20032;-73
2021/08/24 05:27:03;;;;;;;6.30;2.47;;;14.90;84.70;;;;;;4865933;29;20043;-73
2021/08/24 05:29:37;;;;;;;6.60;2.38;;;14.90;84.80;;;;;;4867916;29;20025;-68
2021/08/24 05:32:11;;;;;;;7.45;2.45;;;14.90;84.90;;;;;;4866184;29;20045;-61
2021/08/24 05:34:42;;;;;;;4.35;2.03;;;14.80;85.00;;;;;;4862505;29;20034;-61
2021/08/24 05:37:19;;;;;;;6.38;2.85;;;14.90;85.10;;;;;;4861290;29;20044;-70
2021/08/24 05:39:50;;;;;;;6.45;2.42;;;14.80;85.00;;;;;;4868015;29;20029;-73
2021/08/24 05:42:29;;;;;;;3.58;2.00;;;14.80;85.00;;;;;;4867302;29;20030;-73
2021/08/24 05:45:06;;;;;;;5.43;2.40;;;14.80;85.00;;;;;;4867352;29;20672;-72
2021/08/24 05:47:45;;;;;;;6.97;3.08;;;14.80;85.00;;;;;;4853851;29;20033;-73
2021/08/24 05:50:33;;;;;;;3.55;1.77;;;14.90;85.10;;;;;;4865404;29;20041;-73
2021/08/24 05:53:04;;;;;;;6.97;2.13;;;14.80;85.00;;;;;;4867911;29;20040;-73
2021/08/24 05:55:32;;;;;;;5.80;3.83;;;14.90;85.20;;;;;;4851646;29;20048;-73
2021/08/24 05:58:26;;;;;;;5.28;2.47;;;14.90;85.30;;;;;;4871794;29;20020;-74
2021/08/24 06:00:57;;;;;;;6.82;2.03;;;14.80;85.30;;;;;;4867132;29;20102;-73
2021/08/24 06:03:45;;;;;;;5.47;2.42;;;14.90;85.50;;;;;;4868998;29;20470;-73
2021/08/24 06:06:33;;;;;;;5.78;2.75;;;14.90;85.50;;;;;;4869605;29;20064;-73
2021/08/24 06:09:16;;;;;;;4.78;1.88;;;14.90;86.30;;;;;;4867024;29;20102;-71
2021/08/24 06:12:14;;;;;;;6.30;2.03;;;14.90;85.70;;;;;;4853180;29;20132;-71
2021/08/24 06:15:17;;;;;;;5.97;2.60;;;15.00;85.70;;;;;;4872397;29;20040;-72
2021/08/24 06:17:47;;;;;;;6.25;2.65;;;15.00;85.90;;;;;;4874845;29;20048;-73
2021/08/24 06:20:36;;;;;;;3.85;2.42;;;15.00;86.00;;;;;;4868781;29;20075;-73
2021/08/24 06:23:31;;;;;;;5.30;2.60;;;15.00;86.10;;;;;;4870690;29;20051;-73
2021/08/24 06:26:09;;;;;;;6.45;2.13;;;15.00;86.10;;;;;;4869631;29;20044;-72
2021/08/24 06:28:39;;;;;;;4.28;1.80;;;15.00;86.10;;;;;;4870244;29;20034;-73
2021/08/24 06:31:13;;;;;;;2.88;1.73;;;15.10;86.20;;;;;;4874202;29;20116;-72
2021/08/24 06:33:41;;;;;;;3.95;1.75;;;15.10;86.20;;;;;;4873421;29;20017;-67
2021/08/24 06:36:08;;;;;;;2.92;1.80;;;15.10;86.30;;;;;;4869744;29;20029;-62
2021/08/24 06:38:37;;;;;;;5.53;2.00;;;15.10;86.30;;;;;;4871385;29;20100;-62
2021/08/24 06:41:05;;;;;;;2.80;1.48;;;15.10;86.40;;;;;;4870011;29;20022;-61
2021/08/24 06:43:32;;;;;;;3.38;1.42;;;15.10;86.40;;;;;;4871623;29;20032;-67
2021/08/24 06:45:58;;;;;;;5.50;1.80;;;15.20;86.50;;;;;;4872404;29;20927;-69
2021/08/24 06:48:25;;;;;;;5.35;1.80;;;15.20;86.50;;;;;;4873281;29;20108;-56
2021/08/24 06:50:52;;;;;;;5.05;1.77;;;15.20;86.60;;;;;;4871274;29;20033;-68
2021/08/24 06:53:19;;;;;;;3.78;1.40;;;15.20;86.50;;;;;;4872124;29;20029;-64
2021/08/24 06:55:47;;;;;;;4.40;2.08;;;15.20;86.50;;;;;;4867219;29;20027;-61
2021/08/24 06:58:14;;;;;;;3.92;2.00;;;15.30;86.60;;;;;;4868195;29;20093;-60
2021/08/24 07:00:53;;;;;;;3.83;1.52;;;15.30;86.50;;;;;;4866491;29;20052;-63
2021/08/24 07:03:32;;;;;;;4.72;1.80;;;15.30;86.50;;;;;;4853284;29;20089;-65
2021/08/24 07:05:59;;;;;;;3.55;1.80;;;15.30;87.10;;;;;;4869755;29;20448;-64
2021/08/24 07:08:25;;;;;;;4.28;2.08;;;15.30;86.40;;;;;;4869411;29;20592;-61
2021/08/24 07:10:53;;;;;;;3.13;1.83;;;15.30;86.40;;;;;;4870935;29;20032;-61
2021/08/24 07:13:28;;;;;;;4.35;1.50;;;15.30;86.50;;;;;;4867542;29;20029;-61
2021/08/24 07:16:01;;;;;;;5.43;1.67;;;15.30;87.10;;;;;;4871564;29;20025;-68
2021/08/24 07:18:31;;;;;;;1.80;1.42;;;15.40;86.60;;;;;;4871594;29;20045;-64
2021/08/24 07:20:57;;;;;;;6.28;1.65;;;15.40;86.60;;;;;;4866254;29;20025;-61
2021/08/24 07:23:24;;;;;;;4.22;1.55;;;15.40;86.70;;;;;;4868222;29;20401;-61
2021/08/24 07:25:57;;;;;;;4.07;2.22;;;15.40;86.70;;;;;;4867956;29;20032;-61
2021/08/24 07:28:23;;;;;;;4.93;2.33;;;15.50;86.80;;;;;;4871832;29;20487;-62
2021/08/24 07:30:52;;;;;;;3.80;2.08;;;15.50;86.90;;;;;;4853376;29;20052;-61
2021/08/24 07:33:26;;;;;;;6.07;2.53;;;15.50;86.90;;;;;;4869642;29;20037;-62
2021/08/24 07:35:59;;;;;;;7.95;5.20;;;15.60;87.00;;;;;;4865312;29;20049;-65
2021/08/24 07:38:26;;;;;;;14.73;7.13;;;15.60;87.10;;;;;;4867245;29;20041;-63
2021/08/24 07:40:54;;;;;;;13.63;7.90;;;15.60;87.20;;;;;;4869458;29;20025;-61
2021/08/24 07:43:21;;;;;;;10.35;5.43;;;15.70;87.40;;;;;;4865705;29;20021;-61
2021/08/24 07:45:51;;;;;;;10.05;4.65;;;15.70;87.50;;;;;;4873680;29;20134;-62
2021/08/24 07:48:19;;;;;;;8.45;5.20;;;15.70;87.60;;;;;;4865726;29;20037;-61
2021/08/24 07:50:47;;;;;;;6.78;3.15;;;15.70;87.70;;;;;;4869283;29;20103;-67
2021/08/24 07:53:14;;;;;;;4.97;2.55;;;15.80;87.80;;;;;;4867079;29;20560;-61
2021/08/24 07:55:43;;;;;;;7.10;2.92;;;15.80;87.90;;;;;;4870232;29;20005;-61
2021/08/24 07:58:13;;;;;;;5.05;2.70;;;15.80;87.90;;;;;;4868056;29;20692;-61
2021/08/24 08:00:39;;;;;;;5.90;2.50;;;15.80;87.90;;;;;;4867896;29;20021;-60
2021/08/24 08:03:06;;;;;;;4.47;2.00;;;15.90;88.00;;;;;;4869021;29;20052;-62
2021/08/24 08:05:33;;;;;;;7.93;2.67;;;15.90;88.10;;;;;;4870429;29;20036;-61
2021/08/24 08:08:05;;;;;;;5.38;1.75;;;15.90;88.10;;;;;;4866989;29;20017;-61
2021/08/24 08:10:39;;;;;;;7.13;3.20;;;15.90;88.10;;;;;;4869725;29;20032;-61
2021/08/24 08:13:09;;;;;;;8.35;2.22;;;15.90;88.00;;;;;;4863543;29;20125;-63
2021/08/24 08:15:48;;;;;;;4.78;2.58;;;15.90;88.10;;;;;;4864509;29;20497;-62
2021/08/24 08:18:18;;;;;;;4.35;1.50;;;15.90;88.10;;;;;;4868738;29;20516;-61
2021/08/24 08:20:48;;;;;;;7.45;1.20;;;15.90;88.00;;;;;;4865042;29;20116;-63
2021/08/24 08:23:16;;;;;;;4.80;1.05;;;16.00;88.00;;;;;;4870388;29;20021;-63
2021/08/24 08:25:43;;;;;;;5.95;2.25;;;16.00;87.90;;;;;;4865873;29;20817;-60
2021/08/24 08:28:13;;;;;;;7.15;1.75;;;16.00;87.80;;;;;;4867154;29;20036;-61
2021/08/24 08:30:50;;;;;;;7.07;3.60;;;16.00;87.70;;;;;;4866563;29;20070;-62
2021/08/24 08:33:18;;;;;;;11.02;2.08;;;16.00;87.70;;;;;;4853790;29;20049;-61
2021/08/24 08:35:45;;;;;;;8.00;2.60;;;16.00;87.80;;;;;;4866424;29;20029;-61
2021/08/24 08:38:11;;;;;;;8.05;2.25;;;16.00;87.80;;;;;;4868956;29;20505;-62
2021/08/24 08:40:47;;;;;;;12.57;2.42;;;16.10;87.90;;;;;;4867234;29;20025;-68
2021/08/24 08:43:48;;;;;;;4.20;1.58;;;16.10;87.90;;;;;;4866749;29;20025;-62
2021/08/24 08:46:33;;;;;;;4.95;1.60;;;16.10;88.00;;;;;;4865062;29;20033;-62
2021/08/24 08:49:34;;;;;;;4.88;2.75;;;16.20;88.10;;;;;;4868510;29;20065;-61
2021/08/24 08:52:34;;;;;;;6.70;1.65;;;16.20;87.90;;;;;;4865034;29;20041;-62
2021/08/24 08:55:41;;;;;;;8.18;1.42;;;16.20;87.70;;;;;;4870966;29;20797;-62
2021/08/24 08:58:36;;;;;;;2.58;1.42;;;16.30;87.40;;;;;;4864669;29;20051;-63
2021/08/24 09:01:30;;;;;;;4.38;1.75;;;16.30;87.20;;;;;;4864865;29;20081;-64
2021/08/24 09:04:16;;;;;;;23.40;15.25;;;16.30;87.10;;;;;;4868048;29;20473;-64
2021/08/24 09:06:47;;;;;;;12.93;9.35;;;16.30;87.00;;;;;;4870514;29;20489;-63
2021/08/24 09:09:19;;;;;;;11.95;6.68;;;16.40;86.90;;;;;;4867137;29;20072;-63
2021/08/24 09:11:52;;;;;;;9.43;4.50;;;16.40;86.80;;;;;;4865047;29;20163;-63
2021/08/24 09:14:24;;;;;;;8.13;4.25;;;16.40;86.50;;;;;;4855268;29;20089;-65
2021/08/24 09:17:02;;;;;;;18.52;3.58;;;16.40;86.30;;;;;;4867808;29;20065;-63
2021/08/24 09:19:38;;;;;;;5.43;2.67;;;16.40;86.10;;;;;;4866800;29;20029;-69
2021/08/24 09:22:18;;;;;;;4.07;1.85;;;16.40;86.00;;;;;;4864488;29;20381;-64
2021/08/24 09:24:50;;;;;;;7.68;1.92;;;16.40;86.00;;;;;;4869579;29;20105;-64
2021/08/24 09:27:39;;;;;;;4.80;1.48;;;16.50;86.00;;;;;;4865356;29;20044;-64
2021/08/24 09:30:08;;;;;;;3.10;1.70;;;16.50;85.70;;;;;;4870847;29;20081;-63
2021/08/24 09:32:40;;;;;;;2.42;1.30;;;16.60;85.70;;;;;;4866541;29;20044;-63
2021/08/24 09:35:48;;;;;;;3.03;1.30;;;16.60;85.50;;;;;;4867110;29;20022;-64
2021/08/24 09:38:27;;;;;;;3.88;2.28;;;16.60;85.40;;;;;;4796458;29;20047;-63
2021/08/24 09:41:27;;;;;;;3.60;1.88;;;16.70;85.40;;;;;;4794855;29;20042;-63
2021/08/24 09:44:14;;;;;;;5.20;1.55;;;16.70;85.20;;;;;;4851391;29;20066;-63
2021/08/24 09:47:01;;;;;;;13.45;2.58;;;16.80;85.20;;;;;;4867781;29;22440;-64
2021/08/24 09:49:41;;;;;;;8.52;4.70;;;16.80;85.00;;;;;;4865361;29;20519;-63
2021/08/24 09:52:30;;;;;;;5.60;3.00;;;16.90;84.80;;;;;;4867673;29;20041;-62
2021/08/24 09:55:30;;;;;;;5.22;2.10;;;17.00;84.70;;;;;;4852522;29;20049;-62
2021/08/24 09:58:07;;;;;;;5.45;1.90;;;17.10;84.60;;;;;;4866404;29;20411;-65
2021/08/24 10:01:02;;;;;;;39.05;7.32;;;17.20;84.60;;;;;;4860129;29;20062;-63
2021/08/24 10:03:41;;;;;;;18.40;4.78;;;17.30;84.30;;;;;;4847245;29;20058;-63
2021/08/24 10:06:34;;;;;;;9.95;2.35;;;17.40;83.90;;;;;;4838972;29;20112;-62
2021/08/24 10:09:43;;;;;;;12.18;1.90;;;17.40;83.20;;;;;;4845384;29;20105;-63
2021/08/24 10:12:22;;;;;;;4.28;1.85;;;17.40;82.20;;;;;;4847961;29;20033;-63
2021/08/24 10:15:00;;;;;;;6.20;2.03;;;17.40;81.40;;;;;;4847657;29;20022;-63
2021/08/24 10:17:42;;;;;;;5.72;1.38;;;17.40;80.90;;;;;;4847809;29;20405;-62
2021/08/24 10:20:36;;;;;;;5.53;1.60;;;17.40;80.90;;;;;;4846720;29;20045;-66
2021/08/24 10:23:13;;;;;;;2.60;2.08;;;17.40;81.10;;;;;;4838778;29;20046;-62
2021/08/24 10:25:55;;;;;;;;;;;17.30;81.40;;;;;;4845966;29;20018;-68
2021/08/24 10:28:47;;;;;;;10.23;2.17;;;17.30;81.70;;;;;;4848617;29;20006;-63
2021/08/24 10:31:31;;;;;;;17.55;13.60;;;17.30;81.90;;;;;;4843397;29;20064;-63
2021/08/24 10:34:13;;;;;;;17.35;13.82;;;17.30;82.20;;;;;;4844120;29;20040;-68
2021/08/24 10:36:47;;;;;;;18.63;9.30;;;17.30;82.40;;;;;;4843624;29;20037;-64
2021/08/24 10:39:37;;;;;;;8.38;6.22;;;17.40;82.50;;;;;;4847039;29;20144;-65
2021/08/24 10:42:28;;;;;;;13.07;5.95;;;17.40;82.20;;;;;;4847933;29;20446;-64
2021/08/24 10:45:35;;;;;;;34.65;6.97;;;17.40;81.90;;;;;;4845066;29;20079;-63
2021/08/24 10:48:19;;;;;;;35.42;7.75;;;17.40;81.70;;;;;;4847835;29;20554;-66
2021/08/24 10:51:16;;;;;;;16.02;4.50;;;17.40;81.70;;;;;;4845827;29;20087;-61
2021/08/24 10:54:11;;;;;;;13.30;3.78;;;17.50;81.90;;;;;;4845090;29;20042;-62
2021/08/24 10:57:11;;;;;;;12.88;3.45;;;17.50;81.70;;;;;;4849377;29;20046;-63
2021/08/24 11:00:18;;;;;;;4.10;2.22;;;17.50;80.90;;;;;;4848757;29;20045;-61
2021/08/24 11:06:50;;;;;;;6.72;2.05;;;17.50;80.10;;;;;;4851015;29;20496;-64
2021/08/24 11:09:22;;;;;;;4.60;1.50;;;17.50;79.80;;;;;;4777633;29;20496;-64
2021/08/24 11:12:37;;;;;;;8.95;1.73;;;17.60;79.60;;;;;;4849524;29;20041;-63
2021/08/24 11:15:34;;;;;;;9.77;6.05;;;17.60;79.20;;;;;;4844206;29;20030;-63
2021/08/24 11:18:48;;;;;;;17.73;4.15;;;17.60;79.10;;;;;;4850893;29;20524;-63
2021/08/24 11:21:34;;;;;;;35.45;4.95;;;17.60;79.10;;;;;;4848900;29;20101;-62
2021/08/24 11:24:30;;;;;;;10.02;2.47;;;17.60;79.00;;;;;;4848348;29;20064;-63
2021/08/24 11:27:35;;;;;;;5.85;2.05;;;17.50;78.80;;;;;;4849928;29;20472;-62
2021/08/24 11:30:11;;;;;;;9.05;1.88;;;17.50;78.60;;;;;;4845542;29;20099;-65
2021/08/24 11:32:51;;;;;;;6.40;1.50;;;17.60;78.70;;;;;;4849474;29;20614;-64
2021/08/24 11:35:33;;;;;;;5.07;2.03;;;17.60;78.70;;;;;;4846657;29;20033;-64
2021/08/24 11:38:15;;;;;;;8.38;1.58;;;17.70;78.40;;;;;;4842369;29;20462;-66
2021/08/24 11:41:02;;;;;;;6.95;1.10;;;17.80;78.10;;;;;;4849344;29;20045;-63
2021/08/24 11:43:54;;;;;;;4.97;1.27;;;17.80;78.00;;;;;;4851474;29;20120;-64
2021/08/24 11:46:54;;;;;;;3.47;1.73;;;17.80;77.70;;;;;;4847827;29;20409;-62
2021/08/24 11:49:51;;;;;;;3.30;1.50;;;17.90;77.60;;;;;;4847025;29;20090;-64
2021/08/24 11:52:56;;;;;;;6.85;1.60;;;17.90;77.00;;;;;;4836957;29;20046;-63
2021/08/24 11:55:51;;;;;;;1.60;0.90;;;17.90;76.70;;;;;;5000291;24;20251;-64
2021/08/24 11:58:35;;;;;;;1.65;1.20;;;17.90;76.90;;;;;;4871676;29;20029;-63
2021/08/24 12:01:04;;;;;;;6.45;1.10;;;17.90;76.90;;;;;;4855171;29;20052;-63
2021/08/24 12:03:35;;;;;;;7.57;1.27;;;17.90;76.90;;;;;;4875148;29;20046;-63
2021/08/24 12:06:04;;;;;;;4.72;0.80;;;17.90;76.90;;;;;;4873938;29;20017;-63
2021/08/24 12:09:10;;;;;;;1.95;0.52;;;17.90;77.00;;;;;;4873201;29;20037;-64
2021/08/24 12:12:20;;;;;;;6.05;1.60;;;17.90;77.00;;;;;;4869891;29;20412;-63
2021/08/24 12:15:15;;;;;;;4.45;1.17;;;17.90;77.10;;;;;;4873603;29;20100;-63
2021/08/24 12:18:01;;;;;;;6.50;0.55;;;18.00;77.30;;;;;;4874854;29;20488;-68
2021/08/24 12:21:10;;;;;;;6.82;1.40;;;18.10;77.30;;;;;;4871613;29;20118;-68
2021/08/24 12:24:18;;;;;;;3.92;0.98;;;18.10;77.20;;;;;;4867887;29;20029;-68
2021/08/24 12:27:04;;;;;;;3.85;1.00;;;18.20;77.00;;;;;;4872078;29;20069;-63
2021/08/24 12:29:36;;;;;;;5.53;1.50;;;18.20;76.60;;;;;;4872836;29;20029;-64
2021/08/24 12:32:25;;;;;;;16.52;8.43;;;18.30;76.40;;;;;;4869724;29;20044;-63
2021/08/24 12:35:53;;;;;;;5.07;3.60;;;18.40;76.20;;;;;;4870928;29;20029;-68
2021/08/24 12:39:24;;;;;;;4.75;2.47;;;18.50;75.90;;;;;;4872623;29;20056;-63
2021/08/24 12:42:48;;;;;;;7.40;1.98;;;18.70;75.80;;;;;;4870436;29;20060;-65
2021/08/24 12:45:54;;;;;;;4.75;0.98;;;18.80;75.20;;;;;;4870501;29;20037;-65
2021/08/24 12:48:39;;;;;;;3.67;1.02;;;18.80;74.40;;;;;;4872038;29;20032;-67
2021/08/24 12:51:51;;;;;;;3.80;1.08;;;18.90;73.90;;;;;;4870710;29;20519;-68
2021/08/24 12:55:16;;;;;;;2.13;1.50;;;18.90;74.10;;;;;;4871778;29;20404;-68
2021/08/24 12:58:11;;;;;;;3.80;0.95;;;18.90;73.10;;;;;;4870646;29;20072;-68
2021/08/24 13:01:29;;;;;;;3.88;0.73;;;19.00;72.80;;;;;;4872660;29;20123;-68
2021/08/24 13:04:28;;;;;;;4.10;0.88;;;19.00;72.60;;;;;;4871879;29;20506;-67
2021/08/24 13:07:42;;;;;;;2.20;0.93;;;19.00;72.60;;;;;;4866107;29;20033;-68
2021/08/24 13:10:51;;;;;;;11.80;1.90;;;19.10;73.10;;;;;;4872751;29;20021;-67
2021/08/24 13:13:49;;;;;;;5.22;0.75;;;19.10;72.00;;;;;;4873139;29;20048;-68
2021/08/24 13:17:01;;;;;;;2.17;0.70;;;19.10;71.50;;;;;;4867546;29;20060;-68
2021/08/24 13:20:07;;;;;;;5.30;0.93;;;19.00;71.40;;;;;;4865554;29;20049;-67
2021/08/24 13:23:09;;;;;;;5.13;0.98;;;19.00;71.60;;;;;;4874672;29;20036;-66
2021/08/24 13:26:15;;;;;;;5.63;0.95;;;19.00;72.60;;;;;;4872215;29;20111;-68
2021/08/24 13:29:21;;;;;;;4.10;1.08;;;19.00;73.20;;;;;;4874519;29;20033;-66
2021/08/24 13:32:28;;;;;;;5.38;1.75;;;18.90;73.50;;;;;;4878001;29;20055;-68
2021/08/24 13:35:34;;;;;;;6.45;1.33;;;18.80;73.80;;;;;;4862348;29;20120;-68
2021/08/24 13:38:48;;;;;;;3.30;0.77;;;18.80;73.80;;;;;;4869984;29;20173;-65
2021/08/24 13:41:57;;;;;;;4.95;0.90;;;18.70;74.00;;;;;;4872685;29;20033;-68
2021/08/24 13:45:03;;;;;;;5.32;1.13;;;18.60;74.30;;;;;;4872994;29;20085;-66
2021/08/24 13:48:09;;;;;;;6.97;1.48;;;18.50;74.40;;;;;;4875330;29;20116;-68
2021/08/24 13:51:15;;;;;;;4.72;1.73;;;18.50;74.80;;;;;;4873145;29;20029;-68
2021/08/24 13:54:37;;;;;;;9.52;1.55;;;18.50;75.20;;;;;;4871745;29;20086;-68